sensor_id;sensor_type;location;lat;lon;timestamp;temperature;humidity
69418;DHT22;56610;48.872;2.400;2022-07-12T00:00:44;27.30;83.00
69418;DHT22;56610;48.872;2.400;2022-07-12T00:03:09;27.20;83.10
69418;DHT22;56610;48.872;2.400;2022-07-12T00:05:35;27.30;83.20
69418;DHT22;56610;48.872;2.400;2022-07-12T00:08:01;27.30;83.00
69418;DHT22;56610;48.872;2.400;2022-07-12T00:10:26;27.20;83.10
69418;DHT22;56610;48.872;2.400;2022-07-12T00:12:52;27.20;83.10
69418;DHT22;56610;48.872;2.400;2022-07-12T00:15:18;27.20;83.40
69418;DHT22;56610;48.872;2.400;2022-07-12T00:17:43;27.30;83.30
69418;DHT22;56610;48.872;2.400;2022-07-12T00:20:09;27.30;83.20
69418;DHT22;56610;48.872;2.400;2022-07-12T00:22:34;27.30;83.00
69418;DHT22;56610;48.872;2.400;2022-07-12T00:25:00;27.30;83.10
69418;DHT22;56610;48.872;2.400;2022-07-12T00:27:26;27.20;83.90
69418;DHT22;56610;48.872;2.400;2022-07-12T00:29:53;27.10;83.70
69418;DHT22;56610;48.872;2.400;2022-07-12T00:32:19;27.00;84.00
69418;DHT22;56610;48.872;2.400;2022-07-12T00:34:44;26.80;84.20
69418;DHT22;56610;48.872;2.400;2022-07-12T00:37:10;26.80;84.40
69418;DHT22;56610;48.872;2.400;2022-07-12T00:39:35;26.80;84.40
69418;DHT22;56610;48.872;2.400;2022-07-12T00:42:01;26.80;84.60
69418;DHT22;56610;48.872;2.400;2022-07-12T00:44:26;26.80;84.60
69418;DHT22;56610;48.872;2.400;2022-07-12T00:46:52;26.80;84.90
69418;DHT22;56610;48.872;2.400;2022-07-12T00:49:18;26.70;84.90
69418;DHT22;56610;48.872;2.400;2022-07-12T00:51:44;26.70;85.20
69418;DHT22;56610;48.872;2.400;2022-07-12T00:54:09;26.70;85.10
69418;DHT22;56610;48.872;2.400;2022-07-12T00:56:35;26.80;85.00
69418;DHT22;56610;48.872;2.400;2022-07-12T00:59:00;26.70;85.10
69418;DHT22;56610;48.872;2.400;2022-07-12T01:01:26;26.70;85.30
69418;DHT22;56610;48.872;2.400;2022-07-12T01:03:52;26.70;85.20
69418;DHT22;56610;48.872;2.400;2022-07-12T01:06:18;26.70;85.30
69418;DHT22;56610;48.872;2.400;2022-07-12T01:08:45;26.80;85.30
69418;DHT22;56610;48.872;2.400;2022-07-12T01:11:10;26.80;85.30
69418;DHT22;56610;48.872;2.400;2022-07-12T01:13:36;26.80;85.40
69418;DHT22;56610;48.872;2.400;2022-07-12T01:16:02;26.80;85.30
69418;DHT22;56610;48.872;2.400;2022-07-12T01:18:29;26.80;85.40
69418;DHT22;56610;48.872;2.400;2022-07-12T01:20:54;26.90;85.20
69418;DHT22;56610;48.872;2.400;2022-07-12T01:23:20;27.00;84.90
69418;DHT22;56610;48.872;2.400;2022-07-12T01:25:46;27.00;85.00
69418;DHT22;56610;48.872;2.400;2022-07-12T01:28:12;27.00;85.00
69418;DHT22;56610;48.872;2.400;2022-07-12T01:30:37;27.00;85.00
69418;DHT22;56610;48.872;2.400;2022-07-12T01:33:03;27.00;85.10
69418;DHT22;56610;48.872;2.400;2022-07-12T01:35:29;27.00;85.70
69418;DHT22;56610;48.872;2.400;2022-07-12T01:37:55;26.90;85.30
69418;DHT22;56610;48.872;2.400;2022-07-12T01:40:21;26.90;85.40
69418;DHT22;56610;48.872;2.400;2022-07-12T01:42:48;26.90;85.50
69418;DHT22;56610;48.872;2.400;2022-07-12T01:45:13;26.80;85.50
69418;DHT22;56610;48.872;2.400;2022-07-12T01:47:39;26.80;85.60
69418;DHT22;56610;48.872;2.400;2022-07-12T01:50:08;26.70;85.80
69418;DHT22;56610;48.872;2.400;2022-07-12T01:52:35;26.80;85.80
69418;DHT22;56610;48.872;2.400;2022-07-12T01:55:01;26.80;85.80
69418;DHT22;56610;48.872;2.400;2022-07-12T01:57:26;26.70;85.90
69418;DHT22;56610;48.872;2.400;2022-07-12T01:59:52;26.80;85.90
69418;DHT22;56610;48.872;2.400;2022-07-12T02:02:18;26.70;86.00
69418;DHT22;56610;48.872;2.400;2022-07-12T02:04:44;26.70;86.10
69418;DHT22;56610;48.872;2.400;2022-07-12T02:07:09;26.70;86.10
69418;DHT22;56610;48.872;2.400;2022-07-12T02:09:35;26.60;86.10
69418;DHT22;56610;48.872;2.400;2022-07-12T02:12:00;26.50;86.40
69418;DHT22;56610;48.872;2.400;2022-07-12T02:14:26;26.50;86.60
69418;DHT22;56610;48.872;2.400;2022-07-12T02:16:52;26.40;86.70
69418;DHT22;56610;48.872;2.400;2022-07-12T02:19:17;26.40;86.80
69418;DHT22;56610;48.872;2.400;2022-07-12T02:21:43;26.40;87.10
69418;DHT22;56610;48.872;2.400;2022-07-12T02:24:08;26.40;87.30
69418;DHT22;56610;48.872;2.400;2022-07-12T02:26:37;26.40;87.40
69418;DHT22;56610;48.872;2.400;2022-07-12T02:29:03;26.40;87.50
69418;DHT22;56610;48.872;2.400;2022-07-12T02:31:29;26.40;87.50
69418;DHT22;56610;48.872;2.400;2022-07-12T02:33:54;26.30;87.80
69418;DHT22;56610;48.872;2.400;2022-07-12T02:36:20;26.30;87.70
69418;DHT22;56610;48.872;2.400;2022-07-12T02:38:45;26.20;88.00
69418;DHT22;56610;48.872;2.400;2022-07-12T02:41:11;26.20;88.20
69418;DHT22;56610;48.872;2.400;2022-07-12T02:43:36;26.20;88.30
69418;DHT22;56610;48.872;2.400;2022-07-12T02:46:11;26.20;88.30
69418;DHT22;56610;48.872;2.400;2022-07-12T02:48:37;26.10;88.50
69418;DHT22;56610;48.872;2.400;2022-07-12T02:51:03;26.10;88.70
69418;DHT22;56610;48.872;2.400;2022-07-12T02:53:29;26.10;88.70
69418;DHT22;56610;48.872;2.400;2022-07-12T02:55:55;26.00;88.80
69418;DHT22;56610;48.872;2.400;2022-07-12T02:58:21;25.90;89.00
69418;DHT22;56610;48.872;2.400;2022-07-12T03:00:46;25.90;89.20
69418;DHT22;56610;48.872;2.400;2022-07-12T03:03:12;25.80;89.30
69418;DHT22;56610;48.872;2.400;2022-07-12T03:05:38;25.70;89.50
69418;DHT22;56610;48.872;2.400;2022-07-12T03:08:03;25.70;89.80
69418;DHT22;56610;48.872;2.400;2022-07-12T03:10:29;25.60;90.00
69418;DHT22;56610;48.872;2.400;2022-07-12T03:12:55;25.60;90.10
69418;DHT22;56610;48.872;2.400;2022-07-12T03:15:20;25.50;90.20
69418;DHT22;56610;48.872;2.400;2022-07-12T03:17:46;25.50;90.20
69418;DHT22;56610;48.872;2.400;2022-07-12T03:20:12;25.50;90.40
69418;DHT22;56610;48.872;2.400;2022-07-12T03:22:40;25.50;90.30
69418;DHT22;56610;48.872;2.400;2022-07-12T03:25:05;25.60;90.30
69418;DHT22;56610;48.872;2.400;2022-07-12T03:27:32;25.50;90.30
69418;DHT22;56610;48.872;2.400;2022-07-12T03:29:58;25.50;90.40
69418;DHT22;56610;48.872;2.400;2022-07-12T03:32:23;25.50;90.40
69418;DHT22;56610;48.872;2.400;2022-07-12T03:34:49;25.50;90.40
69418;DHT22;56610;48.872;2.400;2022-07-12T03:37:14;25.50;90.40
69418;DHT22;56610;48.872;2.400;2022-07-12T03:39:42;25.60;90.40
69418;DHT22;56610;48.872;2.400;2022-07-12T03:42:08;25.60;90.30
69418;DHT22;56610;48.872;2.400;2022-07-12T03:44:34;25.50;90.40
69418;DHT22;56610;48.872;2.400;2022-07-12T03:46:59;25.50;90.50
69418;DHT22;56610;48.872;2.400;2022-07-12T03:49:25;25.50;90.50
69418;DHT22;56610;48.872;2.400;2022-07-12T03:51:50;25.50;90.60
69418;DHT22;56610;48.872;2.400;2022-07-12T03:54:16;25.40;90.60
69418;DHT22;56610;48.872;2.400;2022-07-12T03:56:41;25.40;90.50
69418;DHT22;56610;48.872;2.400;2022-07-12T03:59:25;25.40;90.60
69418;DHT22;56610;48.872;2.400;2022-07-12T04:01:51;25.40;90.70
69418;DHT22;56610;48.872;2.400;2022-07-12T04:04:16;25.40;90.60
69418;DHT22;56610;48.872;2.400;2022-07-12T04:06:42;25.40;90.70
69418;DHT22;56610;48.872;2.400;2022-07-12T04:09:07;25.30;90.70
69418;DHT22;56610;48.872;2.400;2022-07-12T04:11:33;25.30;90.70
69418;DHT22;56610;48.872;2.400;2022-07-12T04:13:59;25.30;90.90
69418;DHT22;56610;48.872;2.400;2022-07-12T04:16:25;25.40;90.90
69418;DHT22;56610;48.872;2.400;2022-07-12T04:18:50;25.40;90.80
69418;DHT22;56610;48.872;2.400;2022-07-12T04:21:16;25.40;90.90
69418;DHT22;56610;48.872;2.400;2022-07-12T04:23:41;25.40;90.90
69418;DHT22;56610;48.872;2.400;2022-07-12T04:26:07;25.40;90.90
69418;DHT22;56610;48.872;2.400;2022-07-12T04:28:32;25.50;90.90
69418;DHT22;56610;48.872;2.400;2022-07-12T04:30:58;25.50;90.80
69418;DHT22;56610;48.872;2.400;2022-07-12T04:33:23;25.50;90.80
69418;DHT22;56610;48.872;2.400;2022-07-12T04:35:49;25.50;90.70
69418;DHT22;56610;48.872;2.400;2022-07-12T04:38:14;25.50;90.70
69418;DHT22;56610;48.872;2.400;2022-07-12T04:40:40;25.50;90.70
69418;DHT22;56610;48.872;2.400;2022-07-12T04:43:05;25.60;90.60
69418;DHT22;56610;48.872;2.400;2022-07-12T04:45:31;25.60;90.60
69418;DHT22;56610;48.872;2.400;2022-07-12T04:47:56;25.60;90.60
69418;DHT22;56610;48.872;2.400;2022-07-12T04:50:22;25.60;90.60
69418;DHT22;56610;48.872;2.400;2022-07-12T04:52:47;25.60;90.60
69418;DHT22;56610;48.872;2.400;2022-07-12T04:55:13;25.60;90.60
69418;DHT22;56610;48.872;2.400;2022-07-12T04:57:38;25.60;90.60
69418;DHT22;56610;48.872;2.400;2022-07-12T05:00:05;25.50;90.60
69418;DHT22;56610;48.872;2.400;2022-07-12T05:02:31;25.50;90.60
69418;DHT22;56610;48.872;2.400;2022-07-12T05:04:57;25.50;90.70
69418;DHT22;56610;48.872;2.400;2022-07-12T05:07:23;25.60;90.70
69418;DHT22;56610;48.872;2.400;2022-07-12T05:09:48;25.60;90.60
69418;DHT22;56610;48.872;2.400;2022-07-12T05:12:13;25.70;90.50
69418;DHT22;56610;48.872;2.400;2022-07-12T05:14:39;25.70;90.60
69418;DHT22;56610;48.872;2.400;2022-07-12T05:17:05;25.70;90.40
69418;DHT22;56610;48.872;2.400;2022-07-12T05:19:30;25.70;90.50
69418;DHT22;56610;48.872;2.400;2022-07-12T05:21:56;25.70;90.50
69418;DHT22;56610;48.872;2.400;2022-07-12T05:24:21;25.60;90.70
69418;DHT22;56610;48.872;2.400;2022-07-12T05:26:47;25.50;90.60
69418;DHT22;56610;48.872;2.400;2022-07-12T05:29:12;25.60;90.70
69418;DHT22;56610;48.872;2.400;2022-07-12T05:31:38;25.60;90.70
69418;DHT22;56610;48.872;2.400;2022-07-12T05:34:03;25.70;90.60
69418;DHT22;56610;48.872;2.400;2022-07-12T05:36:29;25.70;90.70
69418;DHT22;56610;48.872;2.400;2022-07-12T05:38:54;25.70;90.70
69418;DHT22;56610;48.872;2.400;2022-07-12T05:41:20;25.70;90.60
69418;DHT22;56610;48.872;2.400;2022-07-12T05:43:46;25.70;90.80
69418;DHT22;56610;48.872;2.400;2022-07-12T05:46:11;25.70;90.50
69418;DHT22;56610;48.872;2.400;2022-07-12T05:48:37;25.70;90.60
69418;DHT22;56610;48.872;2.400;2022-07-12T05:51:03;25.80;90.70
69418;DHT22;56610;48.872;2.400;2022-07-12T05:53:47;25.80;90.60
69418;DHT22;56610;48.872;2.400;2022-07-12T05:56:13;25.90;90.60
69418;DHT22;56610;48.872;2.400;2022-07-12T05:58:38;25.90;90.50
69418;DHT22;56610;48.872;2.400;2022-07-12T06:01:04;25.90;90.40
69418;DHT22;56610;48.872;2.400;2022-07-12T06:03:30;26.00;90.40
69418;DHT22;56610;48.872;2.400;2022-07-12T06:05:56;26.00;90.40
69418;DHT22;56610;48.872;2.400;2022-07-12T06:08:21;26.20;90.20
69418;DHT22;56610;48.872;2.400;2022-07-12T06:10:47;26.10;90.30
69418;DHT22;56610;48.872;2.400;2022-07-12T06:13:12;26.20;90.20
69418;DHT22;56610;48.872;2.400;2022-07-12T06:15:38;26.20;90.20
69418;DHT22;56610;48.872;2.400;2022-07-12T06:18:04;26.20;90.30
69418;DHT22;56610;48.872;2.400;2022-07-12T06:20:29;26.20;90.30
69418;DHT22;56610;48.872;2.400;2022-07-12T06:22:55;26.10;90.40
69418;DHT22;56610;48.872;2.400;2022-07-12T06:25:21;26.10;90.40
69418;DHT22;56610;48.872;2.400;2022-07-12T06:27:46;26.10;90.40
69418;DHT22;56610;48.872;2.400;2022-07-12T06:30:16;26.10;90.30
69418;DHT22;56610;48.872;2.400;2022-07-12T06:32:43;26.20;90.40
69418;DHT22;56610;48.872;2.400;2022-07-12T06:35:09;26.30;90.30
69418;DHT22;56610;48.872;2.400;2022-07-12T06:37:35;26.30;90.30
69418;DHT22;56610;48.872;2.400;2022-07-12T06:40:00;26.40;90.10
69418;DHT22;56610;48.872;2.400;2022-07-12T06:42:26;26.50;90.10
69418;DHT22;56610;48.872;2.400;2022-07-12T06:44:51;26.50;89.80
69418;DHT22;56610;48.872;2.400;2022-07-12T06:47:17;26.60;89.80
69418;DHT22;56610;48.872;2.400;2022-07-12T06:49:42;26.80;89.40
69418;DHT22;56610;48.872;2.400;2022-07-12T06:52:08;26.90;88.90
69418;DHT22;56610;48.872;2.400;2022-07-12T06:54:33;26.90;89.00
69418;DHT22;56610;48.872;2.400;2022-07-12T06:56:59;26.80;88.70
69418;DHT22;56610;48.872;2.400;2022-07-12T06:59:24;26.80;88.80
69418;DHT22;56610;48.872;2.400;2022-07-12T07:01:50;26.80;89.60
69418;DHT22;56610;48.872;2.400;2022-07-12T07:04:17;26.80;89.40
69418;DHT22;56610;48.872;2.400;2022-07-12T07:06:43;26.80;89.30
69418;DHT22;56610;48.872;2.400;2022-07-12T07:09:08;26.90;89.20
69418;DHT22;56610;48.872;2.400;2022-07-12T07:11:34;26.90;89.20
69418;DHT22;56610;48.872;2.400;2022-07-12T07:14:01;27.10;88.60
69418;DHT22;56610;48.872;2.400;2022-07-12T07:16:26;27.20;88.30
69418;DHT22;56610;48.872;2.400;2022-07-12T07:18:52;27.10;88.20
69418;DHT22;56610;48.872;2.400;2022-07-12T07:21:17;27.20;88.20
69418;DHT22;56610;48.872;2.400;2022-07-12T07:23:43;27.20;88.50
69418;DHT22;56610;48.872;2.400;2022-07-12T07:26:09;27.30;86.80
69418;DHT22;56610;48.872;2.400;2022-07-12T07:28:34;27.30;87.80
69418;DHT22;56610;48.872;2.400;2022-07-12T07:31:20;27.30;87.90
69418;DHT22;56610;48.872;2.400;2022-07-12T07:33:45;27.30;88.10
69418;DHT22;56610;48.872;2.400;2022-07-12T07:36:12;27.30;88.30
69418;DHT22;56610;48.872;2.400;2022-07-12T07:38:38;27.20;88.30
69418;DHT22;56610;48.872;2.400;2022-07-12T07:41:04;27.20;88.50
69418;DHT22;56610;48.872;2.400;2022-07-12T07:43:29;27.20;88.60
69418;DHT22;56610;48.872;2.400;2022-07-12T07:45:55;27.30;88.30
69418;DHT22;56610;48.872;2.400;2022-07-12T07:48:21;27.40;87.90
69418;DHT22;56610;48.872;2.400;2022-07-12T07:50:47;27.40;87.80
69418;DHT22;56610;48.872;2.400;2022-07-12T07:53:12;27.40;87.80
69418;DHT22;56610;48.872;2.400;2022-07-12T07:55:38;27.30;88.00
69418;DHT22;56610;48.872;2.400;2022-07-12T07:58:03;27.30;88.00
69418;DHT22;56610;48.872;2.400;2022-07-12T08:00:29;27.30;88.20
69418;DHT22;56610;48.872;2.400;2022-07-12T08:02:55;27.50;87.60
69418;DHT22;56610;48.872;2.400;2022-07-12T08:05:21;27.60;87.10
69418;DHT22;56610;48.872;2.400;2022-07-12T08:07:46;27.70;87.30
69418;DHT22;56610;48.872;2.400;2022-07-12T08:10:12;27.80;86.50
69418;DHT22;56610;48.872;2.400;2022-07-12T08:12:37;27.90;86.30
69418;DHT22;56610;48.872;2.400;2022-07-12T08:15:03;27.90;86.50
69418;DHT22;56610;48.872;2.400;2022-07-12T08:17:28;28.00;86.30
69418;DHT22;56610;48.872;2.400;2022-07-12T08:19:54;28.10;86.00
69418;DHT22;56610;48.872;2.400;2022-07-12T08:22:19;28.20;85.60
69418;DHT22;56610;48.872;2.400;2022-07-12T08:24:45;28.30;85.50
69418;DHT22;56610;48.872;2.400;2022-07-12T08:27:10;28.60;85.00
69418;DHT22;56610;48.872;2.400;2022-07-12T08:29:36;28.60;85.00
69418;DHT22;56610;48.872;2.400;2022-07-12T08:32:01;28.60;84.50
69418;DHT22;56610;48.872;2.400;2022-07-12T08:34:28;28.50;84.50
69418;DHT22;56610;48.872;2.400;2022-07-12T08:36:53;28.60;84.50
69418;DHT22;56610;48.872;2.400;2022-07-12T08:39:19;28.60;83.30
69418;DHT22;56610;48.872;2.400;2022-07-12T08:41:44;28.50;83.80
69418;DHT22;56610;48.872;2.400;2022-07-12T08:44:10;28.50;83.60
69418;DHT22;56610;48.872;2.400;2022-07-12T08:46:35;28.50;83.60
69418;DHT22;56610;48.872;2.400;2022-07-12T08:49:05;28.60;83.00
69418;DHT22;56610;48.872;2.400;2022-07-12T08:51:30;28.60;82.90
69418;DHT22;56610;48.872;2.400;2022-07-12T08:54:06;28.60;82.70
69418;DHT22;56610;48.872;2.400;2022-07-12T08:56:38;28.60;83.10
69418;DHT22;56610;48.872;2.400;2022-07-12T08:59:17;28.70;82.10
69418;DHT22;56610;48.872;2.400;2022-07-12T09:01:43;28.60;81.90
69418;DHT22;56610;48.872;2.400;2022-07-12T09:06:55;28.50;82.50
69418;DHT22;56610;48.872;2.400;2022-07-12T09:09:30;28.40;82.40
69418;DHT22;56610;48.872;2.400;2022-07-12T09:11:56;28.50;82.70
69418;DHT22;56610;48.872;2.400;2022-07-12T09:14:22;28.50;82.60
69418;DHT22;56610;48.872;2.400;2022-07-12T09:19:28;28.70;82.30
69418;DHT22;56610;48.872;2.400;2022-07-12T09:21:54;28.70;81.30
69418;DHT22;56610;48.872;2.400;2022-07-12T09:24:20;28.80;81.20
69418;DHT22;56610;48.872;2.400;2022-07-12T09:26:48;28.90;81.20
69418;DHT22;56610;48.872;2.400;2022-07-12T09:29:17;29.10;80.80
69418;DHT22;56610;48.872;2.400;2022-07-12T09:31:48;29.20;80.20
69418;DHT22;56610;48.872;2.400;2022-07-12T09:34:32;29.30;80.20
69418;DHT22;56610;48.872;2.400;2022-07-12T09:37:16;29.40;80.30
69418;DHT22;56610;48.872;2.400;2022-07-12T09:39:42;29.60;80.00
69418;DHT22;56610;48.872;2.400;2022-07-12T09:42:08;29.60;79.80
69418;DHT22;56610;48.872;2.400;2022-07-12T09:44:38;29.50;79.40
69418;DHT22;56610;48.872;2.400;2022-07-12T09:47:03;29.60;79.80
69418;DHT22;56610;48.872;2.400;2022-07-12T09:49:30;29.70;78.60
69418;DHT22;56610;48.872;2.400;2022-07-12T09:51:56;29.80;78.20
69418;DHT22;56610;48.872;2.400;2022-07-12T09:54:25;29.70;77.70
69418;DHT22;56610;48.872;2.400;2022-07-12T09:56:52;29.80;77.40
69418;DHT22;56610;48.872;2.400;2022-07-12T09:59:18;30.00;77.40
69418;DHT22;56610;48.872;2.400;2022-07-12T10:01:45;30.00;76.60
69418;DHT22;56610;48.872;2.400;2022-07-12T10:04:11;29.90;76.80
69418;DHT22;56610;48.872;2.400;2022-07-12T10:06:39;30.10;76.70
69418;DHT22;56610;48.872;2.400;2022-07-12T10:09:05;30.30;76.10
69418;DHT22;56610;48.872;2.400;2022-07-12T10:11:31;30.40;75.50
69418;DHT22;56610;48.872;2.400;2022-07-12T10:13:57;30.40;75.40
69418;DHT22;56610;48.872;2.400;2022-07-12T10:16:26;30.40;75.80
69418;DHT22;56610;48.872;2.400;2022-07-12T10:21:48;30.10;75.60
69418;DHT22;56610;48.872;2.400;2022-07-12T10:27:00;30.10;73.90
69418;DHT22;56610;48.872;2.400;2022-07-12T10:29:25;30.20;73.70
69418;DHT22;56610;48.872;2.400;2022-07-12T10:31:52;30.30;71.60
69418;DHT22;56610;48.872;2.400;2022-07-12T10:46:58;30.60;70.20
69418;DHT22;56610;48.872;2.400;2022-07-12T10:49:28;30.70;70.60
69418;DHT22;56610;48.872;2.400;2022-07-12T10:54:34;31.00;68.90
69418;DHT22;56610;48.872;2.400;2022-07-12T10:57:00;31.30;69.80
69418;DHT22;56610;48.872;2.400;2022-07-12T10:59:26;31.40;69.50
69418;DHT22;56610;48.872;2.400;2022-07-12T11:01:53;31.50;68.30
69418;DHT22;56610;48.872;2.400;2022-07-12T11:04:20;31.50;68.30
69418;DHT22;56610;48.872;2.400;2022-07-12T11:06:45;31.80;69.00
69418;DHT22;56610;48.872;2.400;2022-07-12T11:09:11;32.20;69.50
69418;DHT22;56610;48.872;2.400;2022-07-12T11:11:41;32.60;68.90
69418;DHT22;56610;48.872;2.400;2022-07-12T11:14:08;32.70;68.40
69418;DHT22;56610;48.872;2.400;2022-07-12T11:16:34;32.90;67.90
69418;DHT22;56610;48.872;2.400;2022-07-12T11:19:07;33.10;66.40
69418;DHT22;56610;48.872;2.400;2022-07-12T11:21:33;33.20;66.50
69418;DHT22;56610;48.872;2.400;2022-07-12T11:23:58;33.40;66.20
69418;DHT22;56610;48.872;2.400;2022-07-12T11:26:24;33.50;66.20
69418;DHT22;56610;48.872;2.400;2022-07-12T11:28:50;33.90;64.90
69418;DHT22;56610;48.872;2.400;2022-07-12T11:31:17;34.60;64.10
69418;DHT22;56610;48.872;2.400;2022-07-12T11:33:44;35.10;61.50
69418;DHT22;56610;48.872;2.400;2022-07-12T11:36:10;35.40;60.50
69418;DHT22;56610;48.872;2.400;2022-07-12T11:38:37;35.80;60.50
69418;DHT22;56610;48.872;2.400;2022-07-12T11:41:04;36.00;60.40
69418;DHT22;56610;48.872;2.400;2022-07-12T11:43:30;36.10;59.10
69418;DHT22;56610;48.872;2.400;2022-07-12T11:45:56;36.30;59.40
69418;DHT22;56610;48.872;2.400;2022-07-12T11:48:22;36.40;59.70
69418;DHT22;56610;48.872;2.400;2022-07-12T11:50:49;36.20;59.20
69418;DHT22;56610;48.872;2.400;2022-07-12T11:53:20;36.00;60.40
69418;DHT22;56610;48.872;2.400;2022-07-12T11:55:46;36.20;59.20
69418;DHT22;56610;48.872;2.400;2022-07-12T11:58:13;36.30;60.10
69418;DHT22;56610;48.872;2.400;2022-07-12T12:00:38;36.40;58.70
69418;DHT22;56610;48.872;2.400;2022-07-12T12:03:04;36.40;58.20
69418;DHT22;56610;48.872;2.400;2022-07-12T12:05:30;36.40;57.70
69418;DHT22;56610;48.872;2.400;2022-07-12T12:07:55;36.70;57.30
69418;DHT22;56610;48.872;2.400;2022-07-12T12:10:21;36.70;56.60
69418;DHT22;56610;48.872;2.400;2022-07-12T12:13:16;36.70;58.20
69418;DHT22;56610;48.872;2.400;2022-07-12T12:15:48;36.80;58.50
69418;DHT22;56610;48.872;2.400;2022-07-12T12:18:15;36.80;58.40
69418;DHT22;56610;48.872;2.400;2022-07-12T12:20:41;36.60;59.40
69418;DHT22;56610;48.872;2.400;2022-07-12T12:23:17;36.50;59.80
69418;DHT22;56610;48.872;2.400;2022-07-12T12:25:43;36.70;59.60
69418;DHT22;56610;48.872;2.400;2022-07-12T12:28:11;36.80;60.00
69418;DHT22;56610;48.872;2.400;2022-07-12T12:30:48;36.80;59.30
69418;DHT22;56610;48.872;2.400;2022-07-12T12:33:32;36.90;59.90
69418;DHT22;56610;48.872;2.400;2022-07-12T12:36:10;37.00;59.20
69418;DHT22;56610;48.872;2.400;2022-07-12T12:38:35;37.10;59.70
69418;DHT22;56610;48.872;2.400;2022-07-12T12:41:01;37.70;59.50
69418;DHT22;56610;48.872;2.400;2022-07-12T12:43:26;37.90;57.20
69418;DHT22;56610;48.872;2.400;2022-07-12T12:45:52;37.60;57.20
69418;DHT22;56610;48.872;2.400;2022-07-12T12:48:19;37.60;57.00
69418;DHT22;56610;48.872;2.400;2022-07-12T12:50:46;37.60;57.30
69418;DHT22;56610;48.872;2.400;2022-07-12T12:55:37;37.90;57.10
69418;DHT22;56610;48.872;2.400;2022-07-12T12:58:03;38.00;57.00
69418;DHT22;56610;48.872;2.400;2022-07-12T13:00:29;37.90;57.20
69418;DHT22;56610;48.872;2.400;2022-07-12T13:02:56;38.20;56.30
69418;DHT22;56610;48.872;2.400;2022-07-12T13:05:27;38.20;55.50
69418;DHT22;56610;48.872;2.400;2022-07-12T13:07:53;38.60;55.20
69418;DHT22;56610;48.872;2.400;2022-07-12T13:10:19;38.70;55.30
69418;DHT22;56610;48.872;2.400;2022-07-12T13:12:44;39.20;55.00
69418;DHT22;56610;48.872;2.400;2022-07-12T13:15:10;39.60;54.00
69418;DHT22;56610;48.872;2.400;2022-07-12T13:17:36;39.70;54.60
69418;DHT22;56610;48.872;2.400;2022-07-12T13:20:02;39.10;54.90
69418;DHT22;56610;48.872;2.400;2022-07-12T13:22:28;38.60;55.40
69418;DHT22;56610;48.872;2.400;2022-07-12T13:24:54;38.20;55.60
69418;DHT22;56610;48.872;2.400;2022-07-12T13:27:20;38.30;55.70
69418;DHT22;56610;48.872;2.400;2022-07-12T13:29:46;38.40;55.60
69418;DHT22;56610;48.872;2.400;2022-07-12T13:32:12;38.50;54.90
69418;DHT22;56610;48.872;2.400;2022-07-12T13:34:38;38.90;55.50
69418;DHT22;56610;48.872;2.400;2022-07-12T13:37:04;39.50;55.40
69418;DHT22;56610;48.872;2.400;2022-07-12T13:39:30;39.30;53.20
69418;DHT22;56610;48.872;2.400;2022-07-12T13:42:22;39.20;53.40
69418;DHT22;56610;48.872;2.400;2022-07-12T13:44:47;39.30;53.40
69418;DHT22;56610;48.872;2.400;2022-07-12T13:47:13;39.50;53.40
69418;DHT22;56610;48.872;2.400;2022-07-12T13:49:39;39.60;52.90
69418;DHT22;56610;48.872;2.400;2022-07-12T13:52:04;39.90;52.60
69418;DHT22;56610;48.872;2.400;2022-07-12T13:54:30;40.00;52.20
69418;DHT22;56610;48.872;2.400;2022-07-12T13:56:55;40.30;52.20
69418;DHT22;56610;48.872;2.400;2022-07-12T13:59:21;40.40;51.90
69418;DHT22;56610;48.872;2.400;2022-07-12T14:01:46;40.80;52.70
69418;DHT22;56610;48.872;2.400;2022-07-12T14:04:12;41.00;52.00
69418;DHT22;56610;48.872;2.400;2022-07-12T14:06:38;41.10;52.10
69418;DHT22;56610;48.872;2.400;2022-07-12T14:09:03;41.40;51.20
69418;DHT22;56610;48.872;2.400;2022-07-12T14:11:28;41.60;50.60
69418;DHT22;56610;48.872;2.400;2022-07-12T14:13:54;41.40;50.50
69418;DHT22;56610;48.872;2.400;2022-07-12T14:16:20;41.70;50.20
69418;DHT22;56610;48.872;2.400;2022-07-12T14:18:46;42.10;50.00
69418;DHT22;56610;48.872;2.400;2022-07-12T14:21:12;42.30;50.40
69418;DHT22;56610;48.872;2.400;2022-07-12T14:23:37;42.60;49.50
69418;DHT22;56610;48.872;2.400;2022-07-12T14:26:03;42.60;49.50
69418;DHT22;56610;48.872;2.400;2022-07-12T14:28:30;42.60;49.20
69418;DHT22;56610;48.872;2.400;2022-07-12T14:30:56;42.20;48.80
69418;DHT22;56610;48.872;2.400;2022-07-12T14:33:21;42.00;48.40
69418;DHT22;56610;48.872;2.400;2022-07-12T14:35:47;42.00;47.10
69418;DHT22;56610;48.872;2.400;2022-07-12T14:38:12;42.10;47.80
69418;DHT22;56610;48.872;2.400;2022-07-12T14:40:38;42.20;47.90
69418;DHT22;56610;48.872;2.400;2022-07-12T14:43:04;42.20;48.10
69418;DHT22;56610;48.872;2.400;2022-07-12T14:45:29;42.20;48.20
69418;DHT22;56610;48.872;2.400;2022-07-12T14:47:55;42.20;46.70
69418;DHT22;56610;48.872;2.400;2022-07-12T14:50:21;42.60;47.30
69418;DHT22;56610;48.872;2.400;2022-07-12T14:52:46;42.70;47.10
69418;DHT22;56610;48.872;2.400;2022-07-12T14:55:12;42.50;47.60
69418;DHT22;56610;48.872;2.400;2022-07-12T14:57:38;42.20;48.30
69418;DHT22;56610;48.872;2.400;2022-07-12T15:00:05;41.80;49.30
69418;DHT22;56610;48.872;2.400;2022-07-12T15:02:31;41.80;49.50
69418;DHT22;56610;48.872;2.400;2022-07-12T15:04:56;42.00;49.70
69418;DHT22;56610;48.872;2.400;2022-07-12T15:07:22;42.10;49.60
69418;DHT22;56610;48.872;2.400;2022-07-12T15:09:48;42.30;49.90
69418;DHT22;56610;48.872;2.400;2022-07-12T15:12:13;42.60;49.40
69418;DHT22;56610;48.872;2.400;2022-07-12T15:14:39;42.50;49.00
69418;DHT22;56610;48.872;2.400;2022-07-12T15:17:05;42.60;49.00
69418;DHT22;56610;48.872;2.400;2022-07-12T15:19:31;42.80;49.00
69418;DHT22;56610;48.872;2.400;2022-07-12T15:21:56;43.10;48.90
69418;DHT22;56610;48.872;2.400;2022-07-12T15:24:22;43.30;48.90
69418;DHT22;56610;48.872;2.400;2022-07-12T15:26:47;43.10;48.90
69418;DHT22;56610;48.872;2.400;2022-07-12T15:29:13;42.90;48.80
69418;DHT22;56610;48.872;2.400;2022-07-12T15:31:38;42.70;48.80
69418;DHT22;56610;48.872;2.400;2022-07-12T15:34:04;43.00;48.70
69418;DHT22;56610;48.872;2.400;2022-07-12T15:36:29;43.40;48.30
69418;DHT22;56610;48.872;2.400;2022-07-12T15:38:55;43.30;47.60
69418;DHT22;56610;48.872;2.400;2022-07-12T15:41:20;43.30;48.60
69418;DHT22;56610;48.872;2.400;2022-07-12T15:43:46;43.30;48.50
69418;DHT22;56610;48.872;2.400;2022-07-12T15:46:12;43.50;48.20
69418;DHT22;56610;48.872;2.400;2022-07-12T15:48:38;43.10;47.70
69418;DHT22;56610;48.872;2.400;2022-07-12T15:51:04;42.80;48.50
69418;DHT22;56610;48.872;2.400;2022-07-12T15:53:30;42.60;47.70